Time;durP1;ratioP1;P1;durP2;ratioP2;P2;SDS_P1;SDS_P2;PMS_P1;PMS_P2;Temp;Humidity;BMP_temperature;BMP_pressure;BME280_temperature;BME280_humidity;BME280_pressure;Samples;Min_cycle;Max_cycle;Signal;HPM_P1;HPM_P2
2022/07/20 00:00:35;;;;;;;;;35.00;32.33;;;;;22.55;62.89;101344.63;111171;1261;19591;-83
2022/07/20 00:03:06;;;;;;;;;33.00;31.67;;;;;22.59;62.91;101342.01;111087;1261;20778;-84
2022/07/20 00:05:33;;;;;;;;;32.00;29.00;;;;;22.56;62.69;101343.22;110975;1261;20137;-83
2022/07/20 00:08:01;;;;;;;;;35.00;32.33;;;;;22.84;62.00;101352.98;110945;1261;19645;-83
2022/07/20 00:13:13;;;;;;;;;35.50;29.50;;;;;23.00;61.34;101351.10;110982;1261;19597;-83
2022/07/20 00:15:40;;;;;;;;;34.33;31.33;;;;;22.83;61.59;101350.17;111003;1261;20185;-83
2022/07/20 00:18:08;;;;;;;;;34.33;30.67;;;;;22.72;61.82;101351.27;111062;1261;18766;-83
2022/07/20 00:20:35;;;;;;;;;33.00;28.50;;;;;22.70;62.03;101348.07;111028;1261;19555;-84
2022/07/20 00:23:02;;;;;;;;;30.50;29.00;;;;;22.76;61.78;101351.52;110922;1262;19547;-85
2022/07/20 00:25:30;;;;;;;;;31.33;29.00;;;;;22.74;61.65;101351.36;110971;1262;21479;-82
2022/07/20 00:27:57;;;;;;;;;32.00;30.00;;;;;22.72;61.77;101356.23;111071;1260;18960;-86
2022/07/20 00:30:24;;;;;;;;;38.33;35.00;;;;;22.62;61.95;101351.94;111075;1261;19474;-83
2022/07/20 00:32:51;;;;;;;;;31.50;29.50;;;;;22.52;62.31;101355.66;111077;1261;18736;-83
2022/07/20 00:35:19;;;;;;;;;33.50;29.00;;;;;22.46;62.46;101355.66;111070;1261;18947;-81
2022/07/20 00:37:46;;;;;;;;;31.00;30.67;;;;;22.40;62.58;101360.55;111074;1261;19539;-84
2022/07/20 00:40:13;;;;;;;;;31.67;29.00;;;;;22.44;62.34;101361.91;111116;1261;21660;-84
2022/07/20 00:42:41;;;;;;;;;29.33;26.67;;;;;22.44;62.34;101360.23;111050;1261;18841;-85
2022/07/20 00:45:08;;;;;;;;;34.00;31.67;;;;;22.44;62.51;101360.23;111080;1261;26900;-86
2022/07/20 00:47:35;;;;;;;;;36.00;29.67;;;;;22.32;62.66;101364.11;111016;1261;18737;-84
2022/07/20 00:50:03;;;;;;;;;34.33;31.67;;;;;22.24;63.11;101363.98;110962;1261;18848;-84
2022/07/20 00:52:30;;;;;;;;;30.00;29.33;;;;;22.37;63.35;101363.98;111033;1261;21058;-83
2022/07/20 00:54:57;;;;;;;;;35.50;32.00;;;;;22.37;63.45;101362.54;111056;1261;20110;-84
2022/07/20 00:57:25;;;;;;;;;34.33;31.33;;;;;22.28;63.85;101365.86;111000;1261;19187;-84
2022/07/20 00:59:52;;;;;;;;;31.00;31.00;;;;;22.26;64.10;101364.15;111030;1261;19764;-84
2022/07/20 01:02:19;;;;;;;;;30.67;28.33;;;;;22.31;64.21;101361.04;110987;1261;22131;-84
2022/07/20 01:04:47;;;;;;;;;35.00;32.00;;;;;22.37;64.05;101365.36;111023;1261;26331;-85
2022/07/20 01:07:14;;;;;;;;;32.00;30.33;;;;;22.25;64.46;101362.24;111118;1261;21705;-84
2022/07/20 01:09:41;;;;;;;;;32.00;30.67;;;;;22.19;64.91;101357.27;111045;1261;23116;-85
2022/07/20 01:12:08;;;;;;;;;34.33;31.67;;;;;22.22;65.26;101359.85;111034;1261;19311;-84
2022/07/20 01:14:36;;;;;;;;;38.00;34.50;;;;;22.14;65.66;101359.45;111031;1261;22086;-85
2022/07/20 01:17:03;;;;;;;;;29.67;28.33;;;;;22.12;65.76;101357.48;111060;1261;19142;-84
2022/07/20 01:19:30;;;;;;;;;37.67;35.67;;;;;22.14;65.79;101363.65;111027;1260;21878;-82
2022/07/20 01:21:58;;;;;;;;;35.00;32.67;;;;;22.14;66.00;101361.05;111014;1261;19571;-84
2022/07/20 01:24:25;;;;;;;;;39.33;36.00;;;;;22.19;65.89;101360.33;111038;1261;20122;-85
2022/07/20 01:26:52;;;;;;;;;77.67;61.00;;;;;22.32;65.33;101366.88;111081;1261;18980;-84
2022/07/20 01:29:20;;;;;;;;;60.00;50.00;;;;;22.39;65.07;101368.10;111045;1261;19551;-83
2022/07/20 01:31:47;;;;;;;;;56.50;45.00;;;;;22.58;64.45;101364.65;111012;1261;18745;-83
2022/07/20 01:34:15;;;;;;;;;45.67;40.67;;;;;22.85;63.31;101370.04;111097;1261;18978;-83
2022/07/20 01:36:42;;;;;;;;;46.00;39.67;;;;;22.67;63.24;101374.06;111018;1261;19549;-81
2022/07/20 01:39:09;;;;;;;;;36.67;35.67;;;;;22.29;64.27;101375.80;111005;1261;19210;-85
2022/07/20 01:41:36;;;;;;;;;38.67;32.33;;;;;22.03;64.86;101373.21;111045;1261;18928;-84
2022/07/20 01:44:04;;;;;;;;;36.67;36.00;;;;;21.98;64.92;101374.84;111031;1261;19637;-85
2022/07/20 01:46:31;;;;;;;;;35.00;35.00;;;;;21.94;65.16;101380.39;111082;1261;18836;-84
2022/07/20 01:48:58;;;;;;;;;33.00;31.33;;;;;21.85;65.22;101379.40;111139;1261;18974;-81
2022/07/20 01:51:26;;;;;;;;;38.33;34.00;;;;;21.84;65.38;101377.14;111097;1260;19510;-80
2022/07/20 01:53:53;;;;;;;;;34.33;31.33;;;;;21.78;65.64;101382.84;111054;1261;18804;-84
2022/07/20 01:56:20;;;;;;;;;33.00;33.00;;;;;21.73;65.62;101385.45;110976;1261;18989;-84
2022/07/20 01:58:48;;;;;;;;;33.00;32.00;;;;;21.80;65.82;101381.23;111091;1261;21769;-83
2022/07/20 02:01:15;;;;;;;;;40.67;31.67;;;;;21.77;66.11;101380.48;111106;1261;18730;-84
2022/07/20 02:03:42;;;;;;;;;34.00;31.00;;;;;21.72;66.34;101379.20;111071;1260;21666;-84
2022/07/20 02:06:09;;;;;;;;;40.67;38.33;;;;;21.73;66.55;101376.35;111017;1261;19401;-83
2022/07/20 02:08:37;;;;;;;;;42.00;38.00;;;;;21.63;67.59;101374.92;111027;1261;18725;-83
2022/07/20 02:11:04;;;;;;;;;42.67;37.67;;;;;21.55;68.05;101370.10;111039;1261;18892;-83
2022/07/20 02:13:32;;;;;;;;;40.67;37.00;;;;;21.66;68.21;101368.18;111112;1261;21112;-83
2022/07/20 02:16:17;;;;;;;;;40.33;35.00;;;;;21.76;67.95;101370.34;111105;1261;20260;-83
2022/07/20 02:18:45;;;;;;;;;42.00;38.00;;;;;21.81;67.86;101372.37;111003;1260;18804;-83
2022/07/20 02:21:12;;;;;;;;;37.33;35.33;;;;;21.81;67.54;101372.16;111041;1261;20113;-84
2022/07/20 02:23:39;;;;;;;;;38.00;37.00;;;;;21.85;67.18;101368.85;110998;1261;18707;-84
2022/07/20 02:26:07;;;;;;;;;42.33;36.67;;;;;21.93;66.71;101371.80;111057;1261;19150;-83
2022/07/20 02:28:34;;;;;;;;;42.00;39.00;;;;;21.91;66.55;101368.71;111069;1261;19756;-84
2022/07/20 02:31:01;;;;;;;;;43.67;38.67;;;;;21.90;66.39;101371.93;111107;1261;21630;-82
2022/07/20 02:33:28;;;;;;;;;38.33;36.67;;;;;21.76;66.14;101377.23;111198;1259;18769;-83
2022/07/20 02:35:56;;;;;;;;;39.67;35.67;;;;;21.53;66.52;101380.86;111189;1258;19515;-83
2022/07/20 02:38:23;;;;;;;;;45.67;39.00;;;;;21.53;66.54;101376.73;111173;1258;18700;-85
2022/07/20 02:40:50;;;;;;;;;37.50;34.00;;;;;21.58;66.34;101375.54;111156;1258;19022;-85
2022/07/20 02:43:18;;;;;;;;;40.33;37.33;;;;;21.56;66.06;101377.64;111218;1258;22244;-81
2022/07/20 02:45:45;;;;;;;;;42.50;39.00;;;;;21.50;66.12;101381.03;111231;1258;18687;-82
2022/07/20 02:48:12;;;;;;;;;37.00;34.67;;;;;21.46;66.04;101383.09;111174;1259;18889;-84
2022/07/20 02:50:41;;;;;;;;;38.00;34.67;;;;;21.55;65.74;101385.72;111175;1258;19639;-83
2022/07/20 02:53:08;;;;;;;;;38.33;35.33;;;;;21.65;65.17;101385.74;111198;1259;22235;-82
2022/07/20 02:55:35;;;;;;;;;38.33;36.00;;;;;21.71;64.94;101388.17;111235;1258;19623;-82
2022/07/20 02:58:03;;;;;;;;;35.67;34.00;;;;;21.64;64.84;101391.83;111241;1258;19889;-83
2022/07/20 03:00:30;;;;;;;;;40.67;36.33;;;;;21.59;64.68;101390.77;111213;1258;26941;-86
2022/07/20 03:02:57;;;;;;;;;37.33;36.00;;;;;21.47;65.06;101387.84;111206;1258;18908;-83
2022/07/20 03:05:24;;;;;;;;;35.33;32.33;;;;;21.60;65.25;101386.14;111189;1258;19482;-83
2022/07/20 03:07:52;;;;;;;;;43.00;37.67;;;;;21.89;64.44;101387.28;111153;1258;18866;-83
2022/07/20 03:10:19;;;;;;;;;34.67;33.33;;;;;22.02;63.92;101392.45;111250;1258;18960;-81
2022/07/20 03:12:46;;;;;;;;;36.67;34.33;;;;;21.82;64.30;101391.30;111209;1258;21842;-82
2022/07/20 03:15:13;;;;;;;;;38.67;35.00;;;;;21.65;64.76;101397.98;111175;1258;19003;-82
2022/07/20 03:17:41;;;;;;;;;39.00;35.33;;;;;21.65;64.88;101398.48;111190;1258;18954;-82
2022/07/20 03:20:08;;;;;;;;;42.00;38.00;;;;;21.62;64.86;101400.63;111116;1258;28278;-83
2022/07/20 03:22:35;;;;;;;;;39.00;37.00;;;;;21.49;65.34;101409.26;111221;1258;21978;-82
2022/07/20 03:25:03;;;;;;;;;42.00;38.00;;;;;21.46;65.25;101406.49;111232;1258;18859;-82
2022/07/20 03:27:30;;;;;;;;;38.00;33.00;;;;;21.39;65.47;101411.34;111232;1258;22959;-82
2022/07/20 03:29:57;;;;;;;;;41.50;37.00;;;;;21.34;65.51;101410.80;111197;1258;18738;-82
2022/07/20 03:32:24;;;;;;;;;39.00;36.00;;;;;21.37;65.50;101408.77;111204;1258;20379;-82
2022/07/20 03:34:52;;;;;;;;;42.00;35.33;;;;;21.49;65.34;101405.00;111215;1258;21352;-82
2022/07/20 03:37:19;;;;;;;;;40.33;37.67;;;;;21.51;65.41;101408.02;111227;1258;18792;-83
2022/07/20 03:39:46;;;;;;;;;37.00;35.33;;;;;21.61;65.01;101406.73;111181;1258;19009;-83
2022/07/20 03:42:14;;;;;;;;;36.00;34.00;;;;;21.69;64.59;101407.91;111141;1258;19490;-83
2022/07/20 03:44:41;;;;;;;;;38.33;37.00;;;;;21.80;64.02;101399.69;111205;1258;18797;-82
2022/07/20 03:47:08;;;;;;;;;38.00;35.00;;;;;21.69;64.09;101403.87;111135;1258;18726;-81
2022/07/20 03:49:35;;;;;;;;;35.00;34.00;;;;;21.65;64.30;101404.30;111220;1258;21002;-83
2022/07/20 03:52:03;;;;;;;;;41.33;38.33;;;;;21.74;64.03;101407.34;111200;1258;18781;-83
2022/07/20 03:54:30;;;;;;;;;42.00;38.33;;;;;21.66;64.25;101406.82;111157;1258;19068;-82
2022/07/20 03:56:57;;;;;;;;;38.33;33.67;;;;;21.58;64.40;101407.45;111170;1258;21727;-83
2022/07/20 03:59:25;;;;;;;;;42.33;39.00;;;;;21.50;64.73;101414.17;111213;1258;18973;-83
2022/07/20 04:01:52;;;;;;;;;40.00;38.50;;;;;21.48;65.02;101418.15;111184;1256;22157;-83
2022/07/20 04:04:19;;;;;;;;;40.00;36.00;;;;;21.55;65.12;101419.35;111214;1258;22799;-83
2022/07/20 04:06:46;;;;;;;;;40.00;36.00;;;;;21.66;64.89;101424.93;111187;1258;18827;-84
2022/07/20 04:09:14;;;;;;;;;38.00;35.33;;;;;21.77;64.58;101423.22;111151;1258;22657;-83
2022/07/20 04:11:41;;;;;;;;;39.00;35.00;;;;;21.79;64.71;101425.34;111152;1258;19805;-82
2022/07/20 04:14:08;;;;;;;;;42.33;36.33;;;;;21.98;64.16;101428.85;111175;1258;18746;-82
2022/07/20 04:16:36;;;;;;;;;44.50;39.00;;;;;21.93;64.20;101430.24;111197;1258;19682;-82
2022/07/20 04:19:03;;;;;;;;;41.00;39.00;;;;;21.70;64.33;101435.23;111167;1258;22348;-81
2022/07/20 04:21:30;;;;;;;;;42.00;39.00;;;;;21.45;65.85;101440.07;111152;1258;18992;-83
2022/07/20 04:23:57;;;;;;;;;44.33;39.00;;;;;21.44;66.49;101444.23;111148;1258;18872;-83
2022/07/20 04:26:25;;;;;;;;;44.00;42.00;;;;;21.43;66.92;101445.11;111186;1258;19620;-83
2022/07/20 04:28:52;;;;;;;;;47.00;39.00;;;;;21.39;68.18;101448.56;111109;1259;18822;-83
2022/07/20 04:31:19;;;;;;;;;42.00;39.00;;;;;21.49;68.63;101445.67;111231;1258;21151;-85
2022/07/20 04:33:47;;;;;;;;;42.33;40.00;;;;;21.49;68.84;101446.76;111193;1258;19512;-82
2022/07/20 04:36:14;;;;;;;;;48.00;42.50;;;;;21.38;69.27;101450.46;111231;1258;18745;-83
2022/07/20 04:38:41;;;;;;;;;47.33;41.00;;;;;21.52;68.98;101449.95;111270;1258;21010;-84
2022/07/20 04:41:09;;;;;;;;;43.00;39.33;;;;;21.51;68.59;101449.98;111321;1257;19644;-84
2022/07/20 04:43:36;;;;;;;;;45.00;41.00;;;;;21.50;68.54;101449.20;111383;1258;19753;-84
2022/07/20 04:46:03;;;;;;;;;43.67;39.00;;;;;21.55;67.94;101450.82;111425;1258;22019;-85
2022/07/20 04:48:30;;;;;;;;;41.00;38.50;;;;;21.57;67.51;101449.04;111320;1258;19537;-83
2022/07/20 04:50:58;;;;;;;;;43.67;38.67;;;;;21.71;67.20;101450.74;111300;1258;22087;-83
2022/07/20 04:53:25;;;;;;;;;39.67;35.00;;;;;21.83;66.30;101450.38;111340;1258;20163;-83
2022/07/20 04:55:53;;;;;;;;;43.67;39.33;;;;;21.84;65.44;101451.03;111276;1258;20142;-82
2022/07/20 04:58:20;;;;;;;;;36.00;34.67;;;;;21.81;65.41;101449.73;111104;1258;22621;-83
2022/07/20 05:00:47;;;;;;;;;38.67;37.00;;;;;21.86;64.84;101452.92;111258;1258;22925;-84
2022/07/20 05:03:14;;;;;;;;;32.00;32.00;;;;;21.86;64.37;101450.73;111234;1258;20260;-82
2022/07/20 05:05:42;;;;;;;;;36.67;34.33;;;;;22.02;63.68;101450.05;111127;1257;19104;-82
2022/07/20 05:08:09;;;;;;;;;40.67;35.67;;;;;22.14;63.20;101453.57;111311;1257;19167;-83
2022/07/20 05:10:36;;;;;;;;;34.00;32.67;;;;;22.24;62.90;101456.87;111380;1258;19511;-83
2022/07/20 05:13:04;;;;;;;;;38.00;35.00;;;;;22.28;62.72;101461.64;111333;1258;22874;-84
2022/07/20 05:15:31;;;;;;;;;42.67;39.00;;;;;22.31;62.18;101462.58;111298;1258;20297;-84
2022/07/20 05:17:58;;;;;;;;;33.67;31.00;;;;;22.31;62.31;101470.48;111253;1258;20428;-85
2022/07/20 05:20:26;;;;;;;;;38.33;36.33;;;;;22.51;61.75;101472.58;111269;1258;18857;-84
2022/07/20 05:22:53;;;;;;;;;36.67;35.00;;;;;22.62;61.28;101465.48;111275;1258;19011;-84
2022/07/20 05:25:20;;;;;;;;;37.67;36.33;;;;;22.63;61.17;101462.84;111325;1258;20962;-84
2022/07/20 05:27:47;;;;;;;;;38.33;36.00;;;;;22.64;60.94;101464.17;111252;1258;18707;-83
2022/07/20 05:30:15;;;;;;;;;40.00;36.67;;;;;22.70;60.90;101457.17;111240;1257;19291;-85
2022/07/20 05:32:42;;;;;;;;;40.67;36.33;;;;;22.64;60.48;101453.27;111293;1258;22887;-84
2022/07/20 05:35:09;;;;;;;;;37.33;33.33;;;;;22.61;60.61;101449.24;111318;1258;19747;-85
2022/07/20 05:37:37;;;;;;;;;38.00;34.00;;;;;22.76;60.42;101443.02;111302;1258;18978;-88
2022/07/20 05:40:05;;;;;;;;;36.00;33.33;;;;;22.92;59.91;101448.52;111185;1258;19572;-82
2022/07/20 05:42:32;;;;;;;;;32.00;29.67;;;;;22.90;59.50;101449.58;111223;1258;18866;-84
2022/07/20 05:44:59;;;;;;;;;37.00;35.00;;;;;22.95;59.44;101447.21;111077;1260;18869;-83
2022/07/20 05:47:26;;;;;;;;;40.50;35.50;;;;;23.28;59.04;101446.73;111059;1261;20599;-86
2022/07/20 05:49:54;;;;;;;;;31.33;30.33;;;;;23.43;58.56;101453.25;111247;1258;22090;-85
2022/07/20 05:52:21;;;;;;;;;36.67;34.00;;;;;23.45;58.34;101456.21;111155;1260;18810;-87
2022/07/20 05:54:48;;;;;;;;;35.50;32.50;;;;;23.61;57.83;101455.27;111143;1258;19745;-88
2022/07/20 05:57:16;;;;;;;;;27.67;25.67;;;;;23.57;57.60;101454.70;111213;1258;21700;-86
2022/07/20 05:59:43;;;;;;;;;33.00;28.67;;;;;23.44;57.28;101457.96;111159;1258;19130;-87
2022/07/20 06:02:10;;;;;;;;;32.00;30.00;;;;;23.39;57.22;101462.40;111105;1259;23822;-88
2022/07/20 06:04:38;;;;;;;;;30.33;29.33;;;;;23.34;57.49;101457.31;111191;1258;18837;-87
2022/07/20 06:07:06;;;;;;;;;30.33;30.00;;;;;23.45;57.52;101459.49;111116;1259;18927;-86
2022/07/20 06:09:33;;;;;;;;;31.33;29.33;;;;;23.62;57.10;101450.27;111197;1258;19923;-87
2022/07/20 06:12:00;;;;;;;;;31.33;29.67;;;;;23.56;56.84;101452.38;111157;1259;18688;-87
2022/07/20 06:14:28;;;;;;;;;30.00;28.00;;;;;23.59;56.99;101451.77;111176;1258;20046;-87
2022/07/20 06:16:59;;;;;;;;;30.50;29.00;;;;;23.67;56.73;101461.37;111285;1258;19733;-89
2022/07/20 06:19:37;;;;;;;;;41.50;34.50;;;;;23.59;56.77;101462.29;111661;1259;21710;-89
2022/07/20 06:22:09;;;;;;;;;31.67;31.67;;;;;23.59;56.92;101456.47;111706;1258;19804;-86
2022/07/20 06:24:39;;;;;;;;;30.00;29.00;;;;;23.76;56.70;101461.57;111436;1258;19585;-85
2022/07/20 06:27:06;;;;;;;;;33.00;29.00;;;;;23.98;56.23;101459.18;111247;1258;18722;-88
2022/07/20 06:29:34;;;;;;;;;36.00;31.33;;;;;24.03;56.02;101464.08;111228;1258;18849;-86
2022/07/20 06:32:01;;;;;;;;;29.67;28.67;;;;;24.04;55.89;101463.08;111459;1259;19774;-88
2022/07/20 06:34:29;;;;;;;;;33.67;30.33;;;;;24.11;55.77;101460.77;111271;1258;18811;-88
2022/07/20 06:36:58;;;;;;;;;29.50;28.00;;;;;24.40;55.24;101465.41;111176;1258;19037;-87
2022/07/20 06:39:25;;;;;;;;;34.50;29.00;;;;;24.37;54.66;101471.14;111335;1257;20984;-88
2022/07/20 06:41:53;;;;;;;;;28.00;27.00;;;;;24.43;54.35;101470.59;111317;1258;22352;-88
2022/07/20 06:44:20;;;;;;;;;31.50;30.00;;;;;24.49;53.52;101471.88;111343;1257;19506;-89
2022/07/20 06:46:48;;;;;;;;;28.00;25.00;;;;;24.50;52.89;101477.66;111490;1258;20932;-89
2022/07/20 06:49:15;;;;;;;;;26.00;25.33;;;;;24.53;52.68;101475.73;111373;1258;19275;-89
2022/07/20 06:51:43;;;;;;;;;27.33;27.00;;;;;24.53;52.44;101480.21;111319;1258;21878;-87
2022/07/20 06:54:10;;;;;;;;;26.33;25.67;;;;;24.60;51.91;101477.92;111246;1258;19514;-87
2022/07/20 06:56:37;;;;;;;;;28.00;25.67;;;;;24.63;51.01;101473.41;111345;1257;18791;-86
2022/07/20 06:59:05;;;;;;;;;28.00;27.00;;;;;24.76;50.98;101469.61;111227;1258;18833;-88
2022/07/20 07:01:33;;;;;;;;;30.00;27.33;;;;;24.81;50.17;101469.02;111341;1258;19454;-87
2022/07/20 07:04:00;;;;;;;;;26.67;25.00;;;;;24.75;49.88;101471.89;111275;1258;19258;-86
2022/07/20 07:06:28;;;;;;;;;30.00;26.67;;;;;24.80;49.15;101471.14;111346;1258;18927;-91
2022/07/20 07:08:56;;;;;;;;;28.33;26.00;;;;;24.77;48.51;101476.14;111257;1258;19922;-87
2022/07/20 07:11:23;;;;;;;;;26.67;24.33;;;;;24.88;48.25;101472.73;111355;1258;18851;-89
2022/07/20 07:13:50;;;;;;;;;28.67;28.00;;;;;24.92;47.72;101468.95;111321;1258;18971;-85
2022/07/20 07:16:18;;;;;;;;;23.00;22.33;;;;;25.07;47.45;101470.56;111347;1257;19537;-88
2022/07/20 07:18:45;;;;;;;;;25.33;23.00;;;;;25.15;47.09;101469.29;111335;1258;18813;-89
2022/07/20 07:21:12;;;;;;;;;26.33;25.00;;;;;25.21;47.03;101464.52;111601;1258;18865;-87
2022/07/20 07:23:40;;;;;;;;;26.67;25.00;;;;;25.23;46.93;101462.58;111748;1258;19728;-89
2022/07/20 07:26:07;;;;;;;;;26.67;25.00;;;;;25.30;47.12;101464.23;111815;1257;18823;-88
2022/07/20 07:28:34;;;;;;;;;24.00;23.33;;;;;25.39;47.49;101466.85;111375;1257;19376;-91
2022/07/20 07:31:02;;;;;;;;;27.00;26.33;;;;;25.43;47.53;101464.20;111261;1258;19716;-88
2022/07/20 07:33:29;;;;;;;;;28.00;24.33;;;;;25.43;47.72;101464.86;111307;1258;22004;-85
2022/07/20 07:35:56;;;;;;;;;24.67;23.00;;;;;25.39;48.23;101463.73;111332;1258;19114;-86
2022/07/20 07:38:23;;;;;;;;;23.50;22.00;;;;;25.39;48.50;101468.11;111222;1258;19599;-86
2022/07/20 07:40:51;;;;;;;;;25.00;25.00;;;;;25.43;48.37;101469.06;110482;1258;863841;-85
2022/07/20 07:43:18;;;;;;;;;24.00;23.00;;;;;25.45;47.97;101468.33;111186;1258;20342;-87
2022/07/20 07:45:46;;;;;;;;;22.67;21.33;;;;;25.44;48.04;101470.12;111163;1258;19635;-83
2022/07/20 07:48:13;;;;;;;;;25.33;23.33;;;;;25.46;47.08;101470.66;111835;1258;20154;-85
2022/07/20 07:50:40;;;;;;;;;24.50;23.00;;;;;25.49;46.64;101469.15;111416;1258;18826;-83
2022/07/20 07:53:08;;;;;;;;;21.67;21.33;;;;;25.48;46.07;101469.47;111157;1258;19503;-84
2022/07/20 07:55:36;;;;;;;;;19.00;18.00;;;;;25.50;45.67;101464.92;110970;1258;18837;-85
2022/07/20 07:58:03;;;;;;;;;22.00;19.67;;;;;25.55;45.78;101467.54;111075;1258;18948;-87
2022/07/20 08:00:30;;;;;;;;;23.67;22.00;;;;;25.53;45.74;101468.27;111073;1258;19561;-83
2022/07/20 08:02:58;;;;;;;;;22.00;21.33;;;;;25.57;45.23;101468.19;111161;1258;22015;-80
2022/07/20 08:05:25;;;;;;;;;21.00;20.00;;;;;25.60;45.24;101467.47;111055;1258;18856;-81
2022/07/20 08:07:52;;;;;;;;;24.50;22.50;;;;;25.68;44.79;101470.73;111145;1258;22161;-80
2022/07/20 08:10:19;;;;;;;;;26.00;25.00;;;;;25.71;44.40;101470.55;110990;1258;18988;-81
2022/07/20 08:12:47;;;;;;;;;20.00;19.00;;;;;25.72;43.41;101471.12;110905;1258;18935;-81
2022/07/20 08:15:14;;;;;;;;;23.33;21.33;;;;;25.62;43.51;101466.70;111114;1259;19519;-82
2022/07/20 08:17:41;;;;;;;;;19.00;18.00;;;;;25.60;43.59;101468.00;111192;1258;18711;-84
2022/07/20 08:20:09;;;;;;;;;23.00;22.00;;;;;25.54;43.99;101460.09;111075;1259;19205;-83
2022/07/20 08:22:36;;;;;;;;;19.67;19.67;;;;;25.45;44.39;101458.71;111149;1258;19675;-82
2022/07/20 08:25:03;;;;;;;;;23.00;21.67;;;;;25.57;43.93;101460.41;111182;1258;18895;-83
2022/07/20 08:27:31;;;;;;;;;22.67;21.33;;;;;25.74;43.41;101456.58;111185;1258;20442;-84
2022/07/20 08:30:00;;;;;;;;;19.00;19.00;;;;;25.77;43.01;101452.38;111187;1258;19517;-82
2022/07/20 08:32:27;;;;;;;;;18.67;17.33;;;;;25.68;43.18;101448.96;111151;1258;22077;-82
2022/07/20 08:34:54;;;;;;;;;23.00;21.33;;;;;25.69;43.75;101448.23;111159;1258;22143;-83
2022/07/20 08:37:22;;;;;;;;;23.00;21.00;;;;;25.83;43.63;101442.61;111156;1258;25604;-83
2022/07/20 08:39:49;;;;;;;;;18.00;18.00;;;;;25.81;43.43;101439.40;111109;1259;18866;-81
2022/07/20 08:42:17;;;;;;;;;21.33;21.33;;;;;25.79;43.54;101429.89;111137;1258;18746;-82
2022/07/20 08:44:44;;;;;;;;;18.67;18.67;;;;;25.86;43.70;101432.06;111136;1258;19588;-81
2022/07/20 08:47:11;;;;;;;;;18.00;18.00;;;;;25.93;43.43;101431.55;111132;1258;20419;-81
2022/07/20 08:49:39;;;;;;;;;20.00;20.00;;;;;25.77;43.72;101428.00;111231;1258;23125;-82
2022/07/20 08:52:06;;;;;;;;;21.00;20.00;;;;;25.70;44.17;101426.15;111156;1258;19600;-82
2022/07/20 08:54:33;;;;;;;;;23.00;20.67;;;;;25.70;44.54;101426.70;111125;1258;19100;-82
2022/07/20 08:57:00;;;;;;;;;18.33;18.33;;;;;25.83;44.43;101421.04;111117;1258;24484;-81
2022/07/20 08:59:28;;;;;;;;;19.50;19.00;;;;;25.96;43.78;101417.25;111127;1259;19637;-82
2022/07/20 09:01:55;;;;;;;;;20.00;19.67;;;;;25.96;43.46;101418.29;111133;1258;19922;-82
2022/07/20 09:04:22;;;;;;;;;19.00;18.00;;;;;25.78;44.00;101419.45;111186;1258;18819;-82
2022/07/20 09:06:50;;;;;;;;;20.00;18.67;;;;;25.64;44.33;101421.52;111148;1258;20146;-82
2022/07/20 09:09:17;;;;;;;;;19.00;18.00;;;;;25.55;44.58;101422.16;111141;1259;18797;-82
2022/07/20 09:11:44;;;;;;;;;17.00;17.00;;;;;25.60;44.50;101420.61;111179;1258;18812;-82
2022/07/20 09:14:11;;;;;;;;;20.00;18.00;;;;;25.55;44.57;101424.33;111138;1258;19553;-84
2022/07/20 09:16:43;;;;;;;;;19.00;18.00;;;;;25.49;44.81;101423.23;111250;1258;18967;-82
2022/07/20 09:19:11;;;;;;;;;21.00;18.33;;;;;25.48;44.81;101422.02;111178;1258;18843;-82
2022/07/20 09:21:38;;;;;;;;;20.00;19.00;;;;;25.41;45.39;101427.58;111121;1258;19542;-83
2022/07/20 09:24:05;;;;;;;;;25.33;23.33;;;;;25.35;46.85;101429.30;111115;1258;19140;-83
2022/07/20 09:26:33;;;;;;;;;87.33;71.33;;;;;25.30;47.59;101428.19;111161;1258;18962;-78
2022/07/20 09:29:00;;;;;;;;;75.67;59.67;;;;;25.37;47.34;101427.34;111111;1259;20960;-80
2022/07/20 09:31:28;;;;;;;;;118.00;101.75;;;;;25.76;45.88;101421.38;111197;1258;18901;-82
2022/07/20 09:33:57;;;;;;;;;88.00;69.00;;;;;26.07;44.92;101422.73;111131;1258;18913;-82
2022/07/20 09:36:24;;;;;;;;;75.00;58.00;;;;;26.26;43.82;101421.20;111151;1258;19701;-84
2022/07/20 09:38:52;;;;;;;;;72.67;58.00;;;;;26.28;43.65;101427.21;111118;1258;18756;-81
2022/07/20 09:41:19;;;;;;;;;71.00;55.00;;;;;26.07;44.22;101424.94;111157;1258;18979;-81
2022/07/20 09:43:46;;;;;;;;;51.00;43.00;;;;;26.08;44.34;101421.45;111165;1258;19621;-84
2022/07/20 09:46:14;;;;;;;;;52.33;43.00;;;;;26.21;43.99;101420.27;111045;1258;21367;-83
2022/07/20 09:48:41;;;;;;;;;43.67;39.00;;;;;26.20;43.95;101416.14;111069;1258;18955;-83
2022/07/20 09:51:09;;;;;;;;;42.67;36.67;;;;;26.34;43.59;101419.80;111182;1258;19567;-83
2022/07/20 09:53:36;;;;;;;;;36.33;35.33;;;;;26.39;43.27;101417.18;111201;1258;20601;-83
2022/07/20 09:56:03;;;;;;;;;36.00;33.33;;;;;26.31;43.48;101415.91;111237;1258;21897;-84
2022/07/20 09:58:31;;;;;;;;;32.00;30.33;;;;;26.19;43.59;101415.89;111232;1257;21972;-83
2022/07/20 10:00:59;;;;;;;;;30.67;28.67;;;;;26.21;43.70;101416.80;111208;1258;22844;-79
2022/07/20 10:03:28;;;;;;;;;29.00;26.33;;;;;26.06;43.90;101420.12;111187;1259;20423;-76
2022/07/20 10:05:55;;;;;;;;;30.67;27.00;;;;;25.96;44.07;101414.94;111143;1259;20700;-80
2022/07/20 10:08:22;;;;;;;;;29.67;28.67;;;;;25.81;44.52;101415.95;111293;1258;18752;-78
2022/07/20 10:10:49;;;;;;;;;25.67;25.67;;;;;25.70;45.01;101419.57;111219;1258;18942;-78
2022/07/20 10:13:17;;;;;;;;;26.67;25.67;;;;;25.86;44.55;101414.04;111122;1259;20221;-78
2022/07/20 10:15:44;;;;;;;;;25.00;24.00;;;;;25.76;44.74;101415.65;111105;1259;19474;-78
2022/07/20 10:18:11;;;;;;;;;21.00;21.00;;;;;26.00;44.25;101413.89;111152;1258;19082;-78
2022/07/20 10:20:39;;;;;;;;;24.33;22.00;;;;;26.04;44.02;101415.56;111137;1258;19495;-79
2022/07/20 10:23:06;;;;;;;;;20.00;20.00;;;;;25.98;44.00;101412.59;111165;1258;18864;-78
2022/07/20 10:25:34;;;;;;;;;20.00;19.00;;;;;26.28;43.20;101410.48;111201;1258;20302;-79
2022/07/20 10:28:01;;;;;;;;;20.67;19.67;;;;;26.36;42.89;101414.02;111131;1258;19527;-77
2022/07/20 10:30:29;;;;;;;;;21.67;21.00;;;;;26.06;43.40;101413.68;111230;1258;18766;-80
2022/07/20 10:32:56;;;;;;;;;20.67;19.33;;;;;26.07;43.75;101420.84;111224;1258;21039;-84
2022/07/20 10:35:24;;;;;;;;;18.00;18.00;;;;;26.28;43.02;101415.96;111225;1258;19636;-83
2022/07/20 10:37:51;;;;;;;;;17.33;16.33;;;;;26.38;42.49;101412.89;111203;1258;20337;-84
2022/07/20 10:40:19;;;;;;;;;19.00;18.00;;;;;26.26;42.92;101407.40;111194;1258;20433;-82
2022/07/20 10:42:46;;;;;;;;;19.00;18.00;;;;;26.45;42.60;101406.45;111139;1258;21116;-82
2022/07/20 10:45:14;;;;;;;;;18.00;16.67;;;;;26.68;42.00;101406.47;111167;1258;20860;-83
2022/07/20 10:47:42;;;;;;;;;17.33;17.33;;;;;26.81;41.15;101404.54;111131;1258;20424;-82
2022/07/20 10:50:09;;;;;;;;;20.00;18.67;;;;;26.85;41.15;101405.15;111151;1258;22055;-82
2022/07/20 10:52:36;;;;;;;;;18.00;16.00;;;;;26.77;41.35;101396.80;111192;1258;18937;-82
2022/07/20 10:55:04;;;;;;;;;19.00;17.00;;;;;26.61;41.93;101396.98;111169;1258;20300;-82
2022/07/20 10:57:31;;;;;;;;;19.00;16.33;;;;;26.27;42.64;101394.36;111133;1258;19540;-81
2022/07/20 10:59:58;;;;;;;;;20.67;20.33;;;;;25.98;43.23;101397.33;111156;1258;19115;-82
2022/07/20 11:02:26;;;;;;;;;19.00;16.00;;;;;25.91;43.95;101392.45;111116;1258;18940;-79
2022/07/20 11:04:53;;;;;;;;;19.33;18.33;;;;;26.03;43.71;101390.67;111098;1258;21199;-79